Time,TemperatureF,DewpointF,PressureIn,WindDirection,WindDirectionDegrees,WindSpeedMPH,WindSpeedGustMPH,Humidity,HourlyPrecipIn,Conditions,Clouds,dailyrainin,SoftwareType,DateUTC
2013-06-12 00:02:00,60.0,22.0,-100.00,WSW,258,15.0,21.0,22,0.00,,,-99.99,,2013-06-12 06:02:00,
2013-06-12 00:12:00,60.0,23.0,-100.00,WSW,258,13.0,18.0,23,0.00,,,-99.99,,2013-06-12 06:12:00,
2013-06-12 00:22:00,60.0,23.0,-100.00,WSW,257,14.0,19.0,24,0.00,,,-99.99,,2013-06-12 06:22:00,
2013-06-12 00:32:00,60.0,24.0,-100.00,WSW,257,14.0,19.0,25,0.00,,,-99.99,,2013-06-12 06:32:00,
2013-06-12 00:42:00,60.0,25.0,-100.00,WSW,257,15.0,21.0,26,0.00,,,-99.99,,2013-06-12 06:42:00,
2013-06-12 00:52:00,60.0,25.0,-100.00,West,260,16.0,21.0,27,0.00,,,-99.99,,2013-06-12 06:52:00,
2013-06-12 01:02:00,60.0,26.0,-100.00,WSW,258,17.0,24.0,27,0.00,,,-99.99,,2013-06-12 07:02:00,
2013-06-12 01:12:00,60.0,27.0,-100.00,WSW,258,19.0,24.0,28,0.00,,,-99.99,,2013-06-12 07:12:00,
2013-06-12 01:22:00,60.0,27.0,-100.00,West,261,21.0,27.0,28,0.00,,,-99.99,,2013-06-12 07:22:00,
2013-06-12 01:33:00,60.0,27.0,-100.00,West,263,23.0,29.0,29,0.00,,,-99.99,,2013-06-12 07:33:00,
2013-06-12 01:43:00,60.0,27.0,-100.00,West,263,22.0,30.0,29,0.00,,,-99.99,,2013-06-12 07:43:00,
2013-06-12 01:53:00,59.0,27.0,-100.00,West,263,21.0,29.0,29,0.00,,,-99.99,,2013-06-12 07:53:00,
2013-06-12 02:02:00,59.0,27.0,-100.00,West,264,22.0,29.0,29,0.00,,,-99.99,,2013-06-12 08:02:00,
2013-06-12 02:12:00,59.0,28.0,-100.00,West,261,21.0,29.0,30,0.00,,,-99.99,,2013-06-12 08:12:00,
2013-06-12 02:22:00,59.0,28.0,-100.00,WSW,253,13.0,22.0,30,0.00,,,-99.99,,2013-06-12 08:22:00,
2013-06-12 02:33:00,60.0,28.0,-100.00,WSW,251,11.0,19.0,30,0.00,,,-99.99,,2013-06-12 08:33:00,
2013-06-12 02:43:00,59.0,28.0,-100.00,WSW,253,9.0,17.0,30,0.00,,,-99.99,,2013-06-12 08:43:00,
2013-06-12 02:53:00,58.0,28.0,-100.00,WSW,248,4.0,9.0,31,0.00,,,-99.99,,2013-06-12 08:53:00,
2013-06-12 03:01:00,59.0,27.0,-100.00,SSW,195,4.0,11.0,30,0.00,,,-99.99,,2013-06-12 09:01:00,
2013-06-12 03:11:00,59.0,27.0,-100.00,WSW,256,5.0,11.0,30,0.00,,,-99.99,,2013-06-12 09:11:00,
2013-06-12 03:22:00,58.0,27.0,-100.00,WSW,254,4.0,9.0,31,0.00,,,-99.99,,2013-06-12 09:22:00,
2013-06-12 03:33:00,57.0,27.0,-100.00,WSW,246,4.0,8.0,32,0.00,,,-99.99,,2013-06-12 09:33:00,
2013-06-12 03:42:00,57.0,27.0,-100.00,WSW,244,5.0,9.0,32,0.00,,,-99.99,,2013-06-12 09:42:00,
2013-06-12 03:53:00,55.0,27.0,-100.00,West,271,6.0,11.0,34,0.00,,,-99.99,,2013-06-12 09:53:00,
2013-06-12 04:01:00,55.0,27.0,-100.00,West,268,4.0,6.0,34,0.00,,,-99.99,,2013-06-12 10:01:00,
2013-06-12 04:11:00,54.0,27.0,-100.00,WSW,256,3.0,5.0,34,0.00,,,-99.99,,2013-06-12 10:11:00,
2013-06-12 04:23:00,53.0,28.0,-100.00,NW,309,0.0,3.0,37,0.00,,,-99.99,,2013-06-12 10:23:00,
2013-06-12 04:33:00,54.0,27.0,-100.00,WNW,302,1.0,4.0,35,0.00,,,-99.99,,2013-06-12 10:33:00,
2013-06-12 04:43:00,56.0,27.0,-100.00,WNW,292,2.0,4.0,33,0.00,,,-99.99,,2013-06-12 10:43:00,
2013-06-12 04:53:00,54.0,27.0,-100.00,SW,216,3.0,6.0,34,0.00,,,-99.99,,2013-06-12 10:53:00,
2013-06-12 05:02:00,54.0,27.0,-100.00,SSW,203,3.0,6.0,35,0.00,,,-99.99,,2013-06-12 11:02:00,
2013-06-12 05:12:00,56.0,27.0,-100.00,SSW,196,2.0,6.0,33,0.00,,,-99.99,,2013-06-12 11:12:00,
2013-06-12 05:24:00,56.0,27.0,-100.00,SSW,203,2.0,6.0,32,0.00,,,-99.99,,2013-06-12 11:24:00,
2013-06-12 05:33:00,56.0,26.0,-100.00,SW,215,1.0,4.0,31,0.00,,,-99.99,,2013-06-12 11:33:00,
2013-06-12 05:43:00,56.0,27.0,-100.00,SW,224,1.0,7.0,32,0.00,,,-99.99,,2013-06-12 11:43:00,
2013-06-12 05:53:00,56.0,27.0,-100.00,WNW,287,1.0,3.0,32,0.00,,,-99.99,,2013-06-12 11:53:00,
2013-06-12 06:01:00,57.0,26.0,-100.00,West,274,2.0,4.0,30,0.00,,,-99.99,,2013-06-12 12:01:00,
2013-06-12 06:11:00,57.0,27.0,-100.00,SSW,202,4.0,6.0,30,0.00,,,-99.99,,2013-06-12 12:11:00,
2013-06-12 06:23:00,55.0,27.0,-100.00,SSW,196,4.0,6.0,33,0.00,,,-99.99,,2013-06-12 12:23:00,
2013-06-12 06:33:00,56.0,27.0,-100.00,SSW,195,3.0,5.0,33,0.00,,,-99.99,,2013-06-12 12:33:00,
2013-06-12 06:42:00,56.0,27.0,-100.00,SSW,193,3.0,5.0,33,0.00,,,-99.99,,2013-06-12 12:42:00,
2013-06-12 06:53:00,56.0,31.0,-100.00,South,186,4.0,6.0,37,0.00,,,-99.99,,2013-06-12 12:53:00,
2013-06-12 07:01:00,58.0,29.0,-100.00,South,185,4.0,6.0,33,0.00,,,-99.99,,2013-06-12 13:01:00,
2013-06-12 07:12:00,61.0,29.0,-100.00,South,179,2.0,4.0,30,0.00,,,-99.99,,2013-06-12 13:12:00,
2013-06-12 07:22:00,62.0,29.0,-100.00,South,181,3.0,4.0,29,0.00,,,-99.99,,2013-06-12 13:22:00,
2013-06-12 07:32:00,62.0,28.0,-100.00,South,182,2.0,3.0,27,0.00,,,-99.99,,2013-06-12 13:32:00,
2013-06-12 07:53:00,65.0,29.0,-100.00,South,182,1.0,3.0,26,0.00,,,-99.99,,2013-06-12 13:53:00,
2013-06-12 08:02:00,66.0,29.0,-100.00,South,178,1.0,3.0,25,0.00,,,-99.99,,2013-06-12 14:02:00,
2013-06-12 08:11:00,66.0,30.0,-100.00,SSW,193,2.0,4.0,25,0.00,,,-99.99,,2013-06-12 14:11:00,
2013-06-12 08:43:00,67.0,30.0,-100.00,East,82,2.0,5.0,25,0.00,,,-99.99,,2013-06-12 14:43:00,
2013-06-12 08:53:00,67.0,31.0,-100.00,ENE,75,2.0,6.0,26,0.00,,,-99.99,,2013-06-12 14:53:00,
2013-06-12 09:01:00,67.0,30.0,-100.00,East,95,2.0,5.0,24,0.00,,,-99.99,,2013-06-12 15:01:00,
2013-06-12 09:12:00,68.0,31.0,-100.00,NNE,17,2.0,6.0,24,0.00,,,-99.99,,2013-06-12 15:12:00,
2013-06-12 09:23:00,68.0,29.0,-100.00,ENE,61,3.0,6.0,23,0.00,,,-99.99,,2013-06-12 15:23:00,
2013-06-12 09:33:00,67.0,30.0,-100.00,East,89,4.0,9.0,25,0.00,,,-99.99,,2013-06-12 15:33:00,
2013-06-12 09:43:00,67.0,29.0,-100.00,East,89,6.0,12.0,24,0.00,,,-99.99,,2013-06-12 15:43:00,
2013-06-12 09:52:00,68.0,30.0,-100.00,ESE,103,6.0,11.0,24,0.00,,,-99.99,,2013-06-12 15:52:00,
2013-06-12 10:01:00,68.0,29.0,-100.00,East,90,5.0,11.0,23,0.00,,,-99.99,,2013-06-12 16:01:00,
2013-06-12 10:11:00,68.0,30.0,-100.00,East,86,6.0,11.0,24,0.00,,,-99.99,,2013-06-12 16:11:00,
2013-06-12 10:22:00,68.0,30.0,-100.00,East,89,6.0,10.0,24,0.00,,,-99.99,,2013-06-12 16:22:00,
2013-06-12 10:32:00,69.0,29.0,-100.00,ENE,78,5.0,10.0,23,0.00,,,-99.99,,2013-06-12 16:32:00,
2013-06-12 10:43:00,69.0,30.0,-100.00,ESE,112,6.0,11.0,23,0.00,,,-99.99,,2013-06-12 16:43:00,
2013-06-12 10:52:00,69.0,29.0,-100.00,ESE,106,7.0,14.0,22,0.00,,,-99.99,,2013-06-12 16:52:00,
2013-06-12 11:01:00,70.0,30.0,-100.00,SE,126,7.0,11.0,22,0.00,,,-99.99,,2013-06-12 17:01:00,
2013-06-12 11:11:00,69.0,30.0,-100.00,ENE,72,10.0,15.0,23,0.00,,,-99.99,,2013-06-12 17:11:00,
2013-06-12 11:22:00,70.0,30.0,-100.00,East,95,8.0,17.0,23,0.00,,,-99.99,,2013-06-12 17:22:00,
2013-06-12 11:33:00,71.0,29.0,-100.00,East,88,8.0,17.0,21,0.00,,,-99.99,,2013-06-12 17:33:00,
2013-06-12 11:42:00,71.0,30.0,-100.00,East,88,9.0,16.0,21,0.00,,,-99.99,,2013-06-12 17:42:00,
2013-06-12 11:52:00,72.0,30.0,-100.00,East,80,10.0,17.0,21,0.00,,,-99.99,,2013-06-12 17:52:00,
2013-06-12 12:02:00,72.0,30.0,-100.00,East,95,10.0,17.0,21,0.00,,,-99.99,,2013-06-12 18:02:00,
2013-06-12 12:12:00,72.0,30.0,-100.00,East,97,12.0,19.0,21,0.00,,,-99.99,,2013-06-12 18:12:00,
2013-06-12 12:22:00,73.0,28.0,-100.00,East,88,11.0,17.0,19,0.00,,,-99.99,,2013-06-12 18:22:00,
2013-06-12 12:32:00,74.0,27.0,-100.00,East,93,9.0,17.0,17,0.00,,,-99.99,,2013-06-12 18:32:00,
2013-06-12 12:43:00,74.0,27.0,-100.00,East,93,9.0,17.0,17,0.00,,,-99.99,,2013-06-12 18:43:00,
2013-06-12 12:53:00,75.0,27.0,-100.00,ESE,120,9.0,19.0,16,0.00,,,-99.99,,2013-06-12 18:53:00,
2013-06-12 13:01:00,76.0,29.0,-100.00,ESE,120,10.0,19.0,18,0.00,,,-99.99,,2013-06-12 19:01:00,
2013-06-12 13:11:00,75.0,27.0,-100.00,ESE,123,12.0,20.0,17,0.00,,,-99.99,,2013-06-12 19:11:00,
2013-06-12 13:22:00,76.0,27.0,-100.00,ESE,113,11.0,19.0,17,0.00,,,-99.99,,2013-06-12 19:22:00,
2013-06-12 13:32:00,77.0,26.0,-100.00,ESE,117,9.0,15.0,15,0.00,,,-99.99,,2013-06-12 19:32:00,
2013-06-12 13:42:00,77.0,26.0,-100.00,SE,143,5.0,11.0,15,0.00,,,-99.99,,2013-06-12 19:42:00,
2013-06-12 13:52:00,78.0,26.0,-100.00,SW,215,6.0,12.0,14,0.00,,,-99.99,,2013-06-12 19:52:00,
2013-06-12 14:01:00,77.0,24.0,-100.00,SW,222,9.0,20.0,14,0.00,,,-99.99,,2013-06-12 20:01:00,
2013-06-12 14:11:00,80.0,25.0,-100.00,SW,222,11.0,27.0,13,0.00,,,-99.99,,2013-06-12 20:11:00,
2013-06-12 14:21:00,78.0,25.0,-100.00,WSW,253,11.0,20.0,14,0.00,,,-99.99,,2013-06-12 20:21:00,
2013-06-12 14:32:00,78.0,25.0,-100.00,SSW,210,9.0,22.0,14,0.00,,,-99.99,,2013-06-12 20:32:00,
2013-06-12 14:42:00,79.0,24.0,-100.00,SSW,208,8.0,17.0,13,0.00,,,-99.99,,2013-06-12 20:42:00,
2013-06-12 14:54:00,78.0,25.0,-100.00,WSW,250,7.0,14.0,14,0.00,,,-99.99,,2013-06-12 20:54:00,
2013-06-12 15:01:00,79.0,25.0,-100.00,SSW,195,9.0,20.0,13,0.00,,,-99.99,,2013-06-12 21:01:00,
2013-06-12 15:11:00,79.0,25.0,-100.00,SW,226,12.0,20.0,13,0.00,,,-99.99,,2013-06-12 21:11:00,
2013-06-12 15:22:00,80.0,24.0,-100.00,WSW,237,8.0,19.0,13,0.00,,,-99.99,,2013-06-12 21:22:00,
2013-06-12 15:33:00,78.0,23.0,-100.00,WSW,251,8.0,14.0,13,0.00,,,-99.99,,2013-06-12 21:33:00,
2013-06-12 15:43:00,79.0,22.0,-100.00,SW,236,11.0,22.0,12,0.00,,,-99.99,,2013-06-12 21:43:00,
2013-06-12 15:52:00,80.0,22.0,-100.00,WSW,237,7.0,13.0,12,0.00,,,-99.99,,2013-06-12 21:52:00,
2013-06-12 16:01:00,78.0,22.0,-100.00,SSW,202,9.0,17.0,12,0.00,,,-99.99,,2013-06-12 22:01:00,
2013-06-12 16:11:00,78.0,24.0,-100.00,SW,220,7.0,18.0,13,0.00,,,-99.99,,2013-06-12 22:11:00,
2013-06-12 16:22:00,78.0,23.0,-100.00,SW,234,12.0,24.0,13,0.00,,,-99.99,,2013-06-12 22:22:00,
2013-06-12 16:32:00,78.0,25.0,-100.00,SSW,195,9.0,22.0,14,0.00,,,-99.99,,2013-06-12 22:32:00,
2013-06-12 16:43:00,78.0,25.0,-100.00,SW,222,8.0,23.0,14,0.00,,,-99.99,,2013-06-12 22:43:00,
2013-06-12 16:52:00,77.0,22.0,-100.00,South,184,11.0,18.0,13,0.00,,,-99.99,,2013-06-12 22:52:00,
2013-06-12 17:01:00,77.0,22.0,-100.00,SSW,202,9.0,17.0,13,0.00,,,-99.99,,2013-06-12 23:01:00,
2013-06-12 17:12:00,78.0,22.0,-100.00,SW,220,10.0,17.0,13,0.00,,,-99.99,,2013-06-12 23:12:00,
2013-06-12 17:22:00,78.0,24.0,-100.00,SSW,208,7.0,17.0,13,0.00,,,-99.99,,2013-06-12 23:22:00,
2013-06-12 17:32:00,78.0,25.0,-100.00,SSW,202,7.0,17.0,14,0.00,,,-99.99,,2013-06-12 23:32:00,
2013-06-12 17:42:00,78.0,24.0,-100.00,SSW,199,8.0,17.0,13,0.00,,,-99.99,,2013-06-12 23:42:00,
2013-06-12 17:52:00,79.0,24.0,-100.00,SW,236,7.0,12.0,13,0.00,,,-99.99,,2013-06-12 23:52:00,
2013-06-12 18:01:00,78.0,25.0,-100.00,WSW,254,7.0,12.0,14,0.00,,,-99.99,,2013-06-13 00:01:00,
2013-06-12 18:11:00,78.0,24.0,-100.00,WSW,240,11.0,19.0,14,0.00,,,-99.99,,2013-06-13 00:11:00,
2013-06-12 18:22:00,79.0,25.0,-100.00,SW,219,9.0,16.0,14,0.00,,,-99.99,,2013-06-13 00:22:00,
2013-06-12 18:32:00,78.0,26.0,-100.00,SSW,200,6.0,16.0,14,0.00,,,-99.99,,2013-06-13 00:32:00,
2013-06-12 18:42:00,78.0,25.0,-100.00,South,185,7.0,16.0,14,0.00,,,-99.99,,2013-06-13 00:42:00,
2013-06-12 18:52:00,78.0,24.0,-100.00,South,184,6.0,12.0,14,0.00,,,-99.99,,2013-06-13 00:52:00,
2013-06-12 19:01:00,78.0,26.0,-100.00,South,188,6.0,11.0,15,0.00,,,-99.99,,2013-06-13 01:01:00,
2013-06-12 19:12:00,78.0,26.0,-100.00,SSW,198,6.0,12.0,14,0.00,,,-99.99,,2013-06-13 01:12:00,
2013-06-12 19:22:00,78.0,25.0,-100.00,SSW,202,6.0,12.0,14,0.00,,,-99.99,,2013-06-13 01:22:00,
2013-06-12 19:32:00,77.0,24.0,-100.00,South,186,6.0,12.0,14,0.00,,,-99.99,,2013-06-13 01:32:00,
2013-06-12 19:43:00,77.0,24.0,-100.00,South,175,6.0,12.0,14,0.00,,,-99.99,,2013-06-13 01:43:00,
2013-06-12 19:53:00,76.0,23.0,-100.00,South,176,7.0,14.0,14,0.00,,,-99.99,,2013-06-13 01:53:00,
2013-06-12 20:01:00,75.0,24.0,-100.00,South,171,6.0,14.0,15,0.00,,,-99.99,,2013-06-13 02:01:00,
2013-06-12 20:12:00,75.0,23.0,-100.00,South,182,4.0,8.0,14,0.00,,,-99.99,,2013-06-13 02:12:00,
2013-06-12 20:22:00,71.0,27.0,-100.00,SSE,165,1.0,4.0,19,0.00,,,-99.99,,2013-06-13 02:22:00,
2013-06-12 20:33:00,70.0,25.0,-100.00,SSE,160,2.0,5.0,18,0.00,,,-99.99,,2013-06-13 02:33:00,
2013-06-12 20:43:00,71.0,23.0,-100.00,SSE,154,4.0,6.0,16,0.00,,,-99.99,,2013-06-13 02:43:00,
2013-06-12 20:52:00,70.0,29.0,-100.00,SE,134,6.0,10.0,22,0.00,,,-99.99,,2013-06-13 02:52:00,
2013-06-12 21:01:00,68.0,33.0,-100.00,SSE,147,9.0,13.0,28,0.00,,,-99.99,,2013-06-13 03:01:00,
2013-06-12 21:11:00,68.0,33.0,-100.00,SE,124,9.0,12.0,28,0.00,,,-99.99,,2013-06-13 03:11:00,
2013-06-12 21:22:00,68.0,33.0,-100.00,SE,133,10.0,13.0,27,0.00,,,-99.99,,2013-06-13 03:22:00,
2013-06-12 21:33:00,69.0,33.0,-100.00,SE,127,10.0,16.0,27,0.00,,,-99.99,,2013-06-13 03:33:00,
2013-06-12 21:42:00,69.0,34.0,-100.00,ESE,119,9.0,16.0,26,0.00,,,-99.99,,2013-06-13 03:42:00,
2013-06-12 21:52:00,67.0,33.0,-100.00,SE,134,7.0,9.0,28,0.00,,,-99.99,,2013-06-13 03:52:00,
2013-06-12 22:01:00,69.0,34.0,-100.00,SE,144,7.0,14.0,27,0.00,,,-99.99,,2013-06-13 04:01:00,
2013-06-12 22:11:00,67.0,34.0,-100.00,SE,143,4.0,9.0,29,0.00,,,-99.99,,2013-06-13 04:11:00,
2013-06-12 22:22:00,67.0,34.0,-100.00,SE,137,7.0,10.0,29,0.00,,,-99.99,,2013-06-13 04:22:00,
2013-06-12 22:32:00,67.0,34.0,-100.00,SE,128,4.0,10.0,29,0.00,,,-99.99,,2013-06-13 04:32:00,
2013-06-12 22:43:00,66.0,34.0,-100.00,ESE,119,4.0,6.0,31,0.00,,,-99.99,,2013-06-13 04:43:00,
2013-06-12 22:53:00,66.0,37.0,-100.00,East,95,13.0,24.0,35,0.00,,,-99.99,,2013-06-13 04:53:00,
2013-06-12 23:02:00,65.0,40.0,-100.00,East,95,16.0,27.0,40,0.00,,,-99.99,,2013-06-13 05:02:00,
2013-06-12 23:12:00,64.0,41.0,-100.00,East,100,19.0,27.0,42,0.00,,,-99.99,,2013-06-13 05:12:00,
2013-06-12 23:23:00,63.0,42.0,-100.00,ESE,110,12.0,22.0,45,0.00,,,-99.99,,2013-06-13 05:23:00,
2013-06-12 23:33:00,63.0,42.0,-100.00,ESE,119,15.0,22.0,45,0.00,,,-99.99,,2013-06-13 05:33:00,
2013-06-12 23:42:00,63.0,42.0,-100.00,SE,128,13.0,19.0,47,0.00,,,-99.99,,2013-06-13 05:42:00,
2013-06-12 23:53:00,62.0,43.0,-100.00,ESE,117,11.0,16.0,51,0.00,,,-99.99,,2013-06-13 05:53:00,